createdAt,value
2018-01-30T00:00:25.892Z,76.73
2018-01-30T00:02:53.430Z,76.82
2018-01-30T00:05:20.957Z,76.79
2018-01-30T00:07:48.708Z,76.95
2018-01-30T00:10:16.242Z,76.85
2018-01-30T00:12:43.778Z,77.55
2018-01-30T00:15:11.567Z,78.75
2018-01-30T00:17:39.187Z,78.55
2018-01-30T00:20:06.825Z,78.33
2018-01-30T00:22:34.515Z,78.64
2018-01-30T00:25:02.062Z,78.38
2018-01-30T00:27:29.593Z,77.94
2018-01-30T00:29:57.368Z,77.82
2018-01-30T00:32:25.090Z,78.05
2018-01-30T00:34:52.641Z,78.51
2018-01-30T00:37:20.422Z,78.11
2018-01-30T00:39:48.022Z,77.87
2018-01-30T00:42:15.659Z,78.22
2018-01-30T00:44:43.267Z,78.31
2018-01-30T00:47:10.898Z,78.28
2018-01-30T00:49:38.421Z,78.27
2018-01-30T00:52:06.129Z,78.37
2018-01-30T00:54:33.750Z,78.59
2018-01-30T00:57:01.466Z,78.67
2018-01-30T00:59:28.992Z,78.42
2018-01-30T01:01:56.602Z,78.63
2018-01-30T01:04:24.141Z,78.61
2018-01-30T01:06:51.666Z,78.30
2018-01-30T01:09:19.454Z,78.67
2018-01-30T01:11:47.273Z,79.26
2018-01-30T01:14:14.990Z,78.88
2018-01-30T01:16:42.610Z,79.04
2018-01-30T01:19:10.326Z,78.81
2018-01-30T01:21:37.926Z,78.77
2018-01-30T01:24:05.584Z,79.11
2018-01-30T01:26:33.110Z,78.86
2018-01-30T01:29:00.646Z,78.70
2018-01-30T01:31:28.169Z,78.27
2018-01-30T01:33:55.746Z,78.13
2018-01-30T01:36:23.282Z,78.55
2018-01-30T01:38:50.810Z,78.65
2018-01-30T01:41:18.341Z,78.62
2018-01-30T01:43:45.866Z,78.97
2018-01-30T01:46:13.451Z,79.34
2018-01-30T01:48:40.977Z,79.09
2018-01-30T01:51:08.499Z,79.05
2018-01-30T01:53:36.038Z,79.21
2018-01-30T01:56:03.703Z,79.62
2018-01-30T01:58:31.273Z,79.96
2018-01-30T02:00:58.816Z,79.96
2018-01-30T02:03:26.383Z,80.22
2018-01-30T02:05:53.914Z,80.28
2018-01-30T02:08:21.874Z,80.18
2018-01-30T02:10:49.446Z,79.99
2018-01-30T02:13:17.125Z,79.71
2018-01-30T02:15:44.650Z,79.61
2018-01-30T02:18:12.185Z,79.13
2018-01-30T02:20:39.733Z,79.39
2018-01-30T02:23:07.317Z,79.90
2018-01-30T02:25:34.846Z,79.85
2018-01-30T02:28:02.378Z,79.30
2018-01-30T02:30:29.915Z,78.99
2018-01-30T02:32:57.443Z,78.64
2018-01-30T02:35:25.149Z,76.90
2018-01-30T02:37:52.670Z,77.24
2018-01-30T02:40:20.411Z,78.75
2018-01-30T02:42:47.953Z,79.76
2018-01-30T02:45:15.536Z,79.97
2018-01-30T02:47:43.110Z,80.37
2018-01-30T02:50:10.782Z,80.69
2018-01-30T02:52:38.508Z,80.67
2018-01-30T02:55:06.074Z,80.64
2018-01-30T02:57:33.606Z,80.45
2018-01-30T03:00:01.518Z,80.22
2018-01-30T03:02:29.130Z,80.36
2018-01-30T03:04:56.654Z,80.58
2018-01-30T03:07:24.190Z,80.11
2018-01-30T03:09:51.718Z,79.76
2018-01-30T03:12:19.517Z,79.51
2018-01-30T03:14:47.164Z,79.37
2018-01-30T03:17:14.695Z,77.23
2018-01-30T03:19:42.233Z,75.52
2018-01-30T03:22:09.917Z,77.06
2018-01-30T03:24:37.513Z,77.92
2018-01-30T03:27:05.039Z,78.59
2018-01-30T03:29:32.564Z,78.92
2018-01-30T03:32:00.291Z,79.28
2018-01-30T03:34:27.822Z,80.18
2018-01-30T03:36:55.402Z,80.12
2018-01-30T03:39:22.927Z,79.81
2018-01-30T03:41:50.449Z,79.43
2018-01-30T03:44:18.002Z,79.55
2018-01-30T03:46:45.538Z,79.95
2018-01-30T03:49:13.110Z,80.21
2018-01-30T03:51:40.646Z,80.26
2018-01-30T03:54:08.691Z,80.07
2018-01-30T03:56:36.463Z,80.18
2018-01-30T03:59:03.990Z,80.28
2018-01-30T04:01:31.798Z,80.28
2018-01-30T04:03:59.321Z,80.11
2018-01-30T04:06:26.841Z,80.23
2018-01-30T04:08:54.380Z,80.38
2018-01-30T04:11:22.071Z,80.56
2018-01-30T04:13:49.674Z,80.52
2018-01-30T04:16:17.198Z,80.50
2018-01-30T04:18:44.754Z,80.54
2018-01-30T04:21:12.299Z,80.34
2018-01-30T04:23:39.958Z,80.74
2018-01-30T04:26:07.542Z,80.62
2018-01-30T04:28:35.201Z,80.60
2018-01-30T04:31:02.755Z,80.71
2018-01-30T04:33:30.293Z,80.67
2018-01-30T04:35:57.823Z,80.36
2018-01-30T04:38:25.434Z,80.04
2018-01-30T04:40:52.967Z,79.67
2018-01-30T04:43:20.493Z,79.85
2018-01-30T04:45:48.029Z,79.90
2018-01-30T04:48:15.633Z,78.51
2018-01-30T04:50:43.262Z,77.86
2018-01-30T04:53:10.794Z,78.78
2018-01-30T04:55:38.321Z,80.35
2018-01-30T04:58:05.857Z,80.05
2018-01-30T05:00:33.407Z,79.37
2018-01-30T05:03:01.054Z,79.52
2018-01-30T05:05:28.859Z,79.64
2018-01-30T05:07:56.386Z,79.88
2018-01-30T05:10:23.950Z,80.26
2018-01-30T05:12:51.506Z,80.36
2018-01-30T05:15:19.115Z,80.35
2018-01-30T05:17:46.754Z,80.61
2018-01-30T05:20:14.282Z,80.73
2018-01-30T05:22:42.688Z,80.82
2018-01-30T05:25:10.394Z,80.93
2018-01-30T05:27:38.022Z,81.20
2018-01-30T05:30:05.617Z,81.71
2018-01-30T05:32:33.147Z,81.90
2018-01-30T05:35:00.777Z,82.29
2018-01-30T05:37:28.319Z,81.94
2018-01-30T05:39:56.111Z,81.74
2018-01-30T05:42:23.639Z,81.40
2018-01-30T05:44:51.174Z,81.32
2018-01-30T05:47:18.710Z,81.40
2018-01-30T05:49:46.350Z,80.51
2018-01-30T05:52:13.898Z,80.20
2018-01-30T05:54:41.429Z,79.84
2018-01-30T05:57:08.987Z,79.84
2018-01-30T05:59:36.514Z,79.65
2018-01-30T06:02:04.275Z,79.50
2018-01-30T06:04:31.806Z,79.20
2018-01-30T06:06:59.346Z,78.47
2018-01-30T06:09:26.886Z,78.43
2018-01-30T06:11:54.643Z,77.86
2018-01-30T06:14:22.251Z,77.88
2018-01-30T06:16:49.838Z,78.25
2018-01-30T06:19:17.366Z,78.25
2018-01-30T06:21:45.067Z,78.40
2018-01-30T06:24:12.598Z,78.35
2018-01-30T06:26:40.182Z,78.54
2018-01-30T06:29:07.710Z,78.15
2018-01-30T06:31:35.234Z,78.15
2018-01-30T06:34:02.826Z,77.46
2018-01-30T06:36:30.523Z,76.83
2018-01-30T06:38:58.098Z,76.12
2018-01-30T06:41:25.754Z,75.34
2018-01-30T06:43:53.282Z,74.72
2018-01-30T06:46:20.956Z,74.59
2018-01-30T06:48:48.571Z,74.72
2018-01-30T06:51:16.190Z,74.87
2018-01-30T06:53:43.710Z,74.27
2018-01-30T06:56:11.362Z,73.51
2018-01-30T06:58:38.955Z,73.69
2018-01-30T07:01:06.696Z,73.42
2018-01-30T07:03:34.270Z,71.90
2018-01-30T07:06:01.823Z,70.55
2018-01-30T07:08:29.442Z,68.90
2018-01-30T07:10:57.035Z,67.70
2018-01-30T07:13:24.597Z,63.88
2018-01-30T07:15:52.352Z,58.64
2018-01-30T07:18:19.898Z,57.21
2018-01-30T07:20:47.438Z,56.65
2018-01-30T07:23:14.982Z,55.73
2018-01-30T07:25:42.776Z,53.19
2018-01-30T07:28:10.494Z,48.60
2018-01-30T07:30:38.026Z,43.36
2018-01-30T07:33:05.569Z,38.89
2018-01-30T07:35:33.110Z,35.77
2018-01-30T07:38:00.642Z,33.55
2018-01-30T07:40:28.559Z,31.67
2018-01-30T07:42:56.094Z,29.68
2018-01-30T07:45:23.694Z,28.53
2018-01-30T07:47:51.340Z,27.57
2018-01-30T07:50:18.874Z,26.47
2018-01-30T07:52:46.455Z,25.51
2018-01-30T07:55:13.989Z,24.58
2018-01-30T07:57:41.605Z,23.56
2018-01-30T08:00:09.185Z,23.64
2018-01-30T08:02:36.843Z,23.75
2018-01-30T08:05:04.431Z,24.37
2018-01-30T08:07:31.966Z,24.57
2018-01-30T08:09:59.502Z,26.25
2018-01-30T08:12:27.362Z,26.73
2018-01-30T08:14:54.930Z,27.15
2018-01-30T08:17:22.508Z,27.83
2018-01-30T08:19:50.038Z,27.00
2018-01-30T08:22:17.758Z,26.02
2018-01-30T08:24:45.403Z,26.19
2018-01-30T08:27:12.930Z,25.15
2018-01-30T08:29:40.527Z,25.45
2018-01-30T08:32:08.083Z,24.86
2018-01-30T08:34:35.625Z,24.58
2018-01-30T08:37:03.183Z,24.40
2018-01-30T08:39:30.718Z,24.30
2018-01-30T08:41:58.526Z,25.23
2018-01-30T08:44:26.064Z,27.26
2018-01-30T08:46:53.630Z,28.18
2018-01-30T08:49:21.182Z,28.00
2018-01-30T08:51:48.714Z,26.78
2018-01-30T08:54:16.289Z,26.07
2018-01-30T08:56:43.923Z,26.26
2018-01-30T08:59:11.457Z,25.38
2018-01-30T09:01:39.001Z,25.14
2018-01-30T09:04:06.767Z,25.88
2018-01-30T09:06:34.604Z,25.40
2018-01-30T09:09:02.208Z,24.89
2018-01-30T09:11:29.741Z,24.73
2018-01-30T09:13:57.295Z,25.72
2018-01-30T09:16:24.882Z,25.38
2018-01-30T09:18:52.695Z,26.22
2018-01-30T09:21:20.302Z,26.44
2018-01-30T09:23:47.841Z,26.43
2018-01-30T09:26:15.381Z,26.48
2018-01-30T09:28:42.914Z,27.07
2018-01-30T09:31:10.494Z,26.99
2018-01-30T09:33:38.027Z,26.86
2018-01-30T09:36:05.569Z,26.99
2018-01-30T09:38:33.110Z,25.13
2018-01-30T09:41:00.646Z,25.17
2018-01-30T09:43:28.270Z,25.59
2018-01-30T09:45:55.802Z,24.69
2018-01-30T09:48:23.338Z,24.36
2018-01-30T09:50:50.893Z,23.36
2018-01-30T09:53:18.433Z,24.09
2018-01-30T09:55:46.080Z,23.63
2018-01-30T09:58:13.776Z,24.17
2018-01-30T10:00:41.294Z,24.67
2018-01-30T10:03:08.833Z,24.50
2018-01-30T10:05:36.368Z,24.20
2018-01-30T10:08:03.994Z,23.84
2018-01-30T10:10:31.538Z,23.98
2018-01-30T10:12:59.062Z,23.66
2018-01-30T10:15:26.599Z,23.25
2018-01-30T10:17:54.127Z,23.64
2018-01-30T10:20:21.839Z,22.46
2018-01-30T10:22:49.607Z,22.54
2018-01-30T10:25:17.146Z,23.79
2018-01-30T10:27:44.682Z,24.40
2018-01-30T10:30:12.310Z,22.80
2018-01-30T10:32:39.878Z,23.77
2018-01-30T10:35:07.401Z,23.94
2018-01-30T10:37:35.062Z,23.77
2018-01-30T10:40:02.708Z,23.75
2018-01-30T10:42:30.237Z,25.51
2018-01-30T10:44:57.806Z,24.21
2018-01-30T10:47:26.536Z,24.57
2018-01-30T10:49:54.155Z,25.12
2018-01-30T10:52:21.698Z,25.54
2018-01-30T10:54:49.398Z,25.56
2018-01-30T10:57:17.055Z,25.13
2018-01-30T10:59:44.783Z,25.02
2018-01-30T11:02:12.542Z,25.10
2018-01-30T11:04:40.163Z,25.76
2018-01-30T11:07:07.696Z,27.14
2018-01-30T11:09:35.502Z,26.68
2018-01-30T11:12:03.038Z,26.71
2018-01-30T11:14:30.832Z,25.67
2018-01-30T11:16:58.374Z,26.10
2018-01-30T11:19:25.994Z,25.94
2018-01-30T11:21:53.565Z,26.74
2018-01-30T11:24:21.146Z,27.26
2018-01-30T11:26:48.678Z,25.04
2018-01-30T11:29:16.214Z,25.88
2018-01-30T11:31:43.745Z,25.24
2018-01-30T11:34:11.328Z,25.79
2018-01-30T11:36:38.853Z,25.54
2018-01-30T11:39:06.609Z,25.34
2018-01-30T11:41:34.142Z,25.67
2018-01-30T11:44:01.751Z,25.49
2018-01-30T11:46:29.330Z,24.16
2018-01-30T11:48:56.862Z,24.03
2018-01-30T11:51:24.389Z,24.28
2018-01-30T11:53:52.003Z,25.21
2018-01-30T11:56:19.982Z,24.56
2018-01-30T11:58:47.503Z,24.84
2018-01-30T12:01:15.062Z,24.78
2018-01-30T12:03:42.589Z,24.21
2018-01-30T12:06:10.132Z,24.37
2018-01-30T12:08:37.824Z,24.31
2018-01-30T12:11:05.401Z,23.65
2018-01-30T12:13:32.932Z,24.62
2018-01-30T12:16:00.477Z,23.99
2018-01-30T12:18:28.093Z,24.12
2018-01-30T12:20:55.707Z,23.93
2018-01-30T12:23:23.241Z,23.24
2018-01-30T12:25:50.777Z,23.22
2018-01-30T12:28:18.309Z,23.98
2018-01-30T12:30:45.983Z,24.68
2018-01-30T12:33:13.703Z,24.36
2018-01-30T12:35:41.414Z,25.07
2018-01-30T12:38:09.034Z,24.07
2018-01-30T12:40:36.641Z,23.41
2018-01-30T12:43:04.338Z,23.63
2018-01-30T12:45:31.910Z,23.58
2018-01-30T12:47:59.435Z,23.95
2018-01-30T12:50:27.527Z,21.93
2018-01-30T12:52:55.244Z,21.57
2018-01-30T12:55:22.965Z,22.30
2018-01-30T12:57:50.678Z,22.20
2018-01-30T13:00:18.288Z,22.48
2018-01-30T13:02:45.809Z,22.37
2018-01-30T13:05:13.494Z,23.06
2018-01-30T13:07:41.005Z,22.35
2018-01-30T13:10:08.578Z,24.04
2018-01-30T13:12:36.126Z,23.91
2018-01-30T13:15:03.714Z,24.35
2018-01-30T13:17:31.250Z,24.42
2018-01-30T13:19:58.917Z,24.58
2018-01-30T13:22:26.510Z,26.09
2018-01-30T13:24:54.037Z,25.15
2018-01-30T13:27:21.698Z,24.14
2018-01-30T13:29:49.238Z,24.19
2018-01-30T13:32:16.931Z,26.52
2018-01-30T13:34:44.796Z,26.45
2018-01-30T13:37:12.470Z,25.40
2018-01-30T13:39:40.014Z,25.79
2018-01-30T13:42:07.610Z,25.21
2018-01-30T13:44:35.564Z,25.21
2018-01-30T13:47:03.150Z,26.37
2018-01-30T13:49:30.701Z,26.11
2018-01-30T13:51:58.222Z,26.19
2018-01-30T13:54:25.950Z,27.66
2018-01-30T13:56:53.509Z,28.22
2018-01-30T13:59:21.093Z,26.64
2018-01-30T14:01:48.750Z,26.78
2018-01-30T14:04:16.367Z,27.21
2018-01-30T14:06:43.910Z,27.05
2018-01-30T14:09:11.700Z,26.57
2018-01-30T14:11:40.120Z,27.09
2018-01-30T14:14:07.672Z,26.77
2018-01-30T14:16:35.202Z,28.20
2018-01-30T14:19:02.734Z,29.35
2018-01-30T14:21:30.458Z,28.68
2018-01-30T14:23:58.310Z,28.91
2018-01-30T14:26:25.875Z,29.24
2018-01-30T14:28:53.481Z,28.64
2018-01-30T14:31:21.042Z,28.87
2018-01-30T14:33:48.571Z,29.98
2018-01-30T14:36:16.302Z,31.16
2018-01-30T14:38:43.883Z,31.63
2018-01-30T14:41:11.534Z,32.27
2018-01-30T14:43:39.254Z,31.82
2018-01-30T14:46:06.960Z,31.65
2018-01-30T14:48:34.547Z,32.41
2018-01-30T14:51:02.206Z,33.66
2018-01-30T14:53:29.739Z,33.84
2018-01-30T14:55:57.456Z,33.71
2018-01-30T14:58:25.353Z,35.37
2018-01-30T15:00:53.047Z,36.07
2018-01-30T15:03:20.590Z,36.03
2018-01-30T15:05:48.194Z,37.49
2018-01-30T15:08:15.738Z,38.77
2018-01-30T15:10:43.557Z,40.38
2018-01-30T15:13:11.471Z,40.25
2018-01-30T15:15:39.006Z,41.33
2018-01-30T15:18:06.705Z,42.10
2018-01-30T15:20:34.273Z,43.27
2018-01-30T15:23:01.814Z,43.84
2018-01-30T15:25:29.662Z,44.51
2018-01-30T15:27:57.373Z,44.87
2018-01-30T15:30:25.107Z,44.97
2018-01-30T15:32:52.658Z,45.79
2018-01-30T15:35:20.366Z,45.87
2018-01-30T15:37:47.954Z,46.55
2018-01-30T15:40:15.498Z,47.34
2018-01-30T15:42:43.167Z,47.57
2018-01-30T15:45:10.711Z,47.28
2018-01-30T15:47:38.250Z,47.97
2018-01-30T15:50:05.902Z,48.73
2018-01-30T15:52:33.561Z,48.67
2018-01-30T15:55:01.096Z,49.14
2018-01-30T15:57:28.892Z,50.13
2018-01-30T15:59:56.710Z,50.55
2018-01-30T16:02:24.291Z,50.76
2018-01-30T16:04:51.823Z,51.33
2018-01-30T16:07:19.362Z,52.25
2018-01-30T16:09:46.910Z,53.00
2018-01-30T16:12:14.594Z,53.81
2018-01-30T16:14:43.231Z,53.55
2018-01-30T16:17:11.013Z,54.30
2018-01-30T16:19:38.710Z,54.06
2018-01-30T16:22:06.264Z,54.82
2018-01-30T16:24:33.811Z,54.72
2018-01-30T16:27:01.605Z,55.10
2018-01-30T16:29:29.182Z,54.96
2018-01-30T16:31:56.946Z,55.17
2018-01-30T16:34:24.619Z,54.51
2018-01-30T16:36:52.150Z,54.93
2018-01-30T16:39:19.838Z,54.49
2018-01-30T16:41:47.410Z,54.82
2018-01-30T16:44:14.967Z,55.22
2018-01-30T16:46:42.649Z,55.07
2018-01-30T16:49:10.214Z,54.61
2018-01-30T16:51:37.964Z,54.94
2018-01-30T16:54:05.605Z,54.73
2018-01-30T16:56:33.417Z,55.25
2018-01-30T16:59:01.345Z,54.78
2018-01-30T17:01:29.164Z,55.27
2018-01-30T17:03:57.084Z,54.97
2018-01-30T17:06:25.367Z,55.07
2018-01-30T17:08:52.947Z,55.54
2018-01-30T17:11:20.534Z,54.70
2018-01-30T17:13:48.551Z,54.86
2018-01-30T17:16:16.274Z,55.15
2018-01-30T17:18:43.985Z,55.14
2018-01-30T17:21:11.713Z,54.92
2018-01-30T17:23:39.522Z,55.18
2018-01-30T17:26:07.126Z,55.76
2018-01-30T17:28:35.384Z,55.91
2018-01-30T17:31:03.179Z,55.96
2018-01-30T17:33:30.770Z,56.14
2018-01-30T17:35:58.516Z,56.71
2018-01-30T17:38:26.384Z,56.82
2018-01-30T17:40:54.254Z,57.09
2018-01-30T17:43:21.852Z,57.43
2018-01-30T17:45:49.698Z,56.80
2018-01-30T17:48:18.116Z,57.60
2018-01-30T17:50:46.508Z,56.92
2018-01-30T17:53:15.152Z,57.63
2018-01-30T17:55:43.656Z,57.66
2018-01-30T17:58:12.294Z,57.65
2018-01-30T18:00:40.815Z,57.48
2018-01-30T18:03:09.346Z,57.65
2018-01-30T18:05:37.841Z,57.38
2018-01-30T18:08:06.386Z,57.26
2018-01-30T18:10:34.902Z,57.30
2018-01-30T18:13:03.534Z,57.58
2018-01-30T18:15:32.043Z,57.38
2018-01-30T18:18:00.571Z,57.59
2018-01-30T18:20:29.084Z,57.72
2018-01-30T18:22:57.588Z,56.90
2018-01-30T18:25:26.131Z,56.98
2018-01-30T18:27:54.641Z,56.98
2018-01-30T18:30:23.146Z,57.12
2018-01-30T18:32:51.792Z,56.97
2018-01-30T18:35:20.422Z,56.38
2018-01-30T18:37:48.977Z,56.60
2018-01-30T18:40:17.491Z,56.81
2018-01-30T18:42:49.409Z,56.95
2018-01-30T18:45:18.202Z,56.54
2018-01-30T18:47:46.810Z,56.96
2018-01-30T18:50:15.463Z,56.93
2018-01-30T18:52:44.054Z,57.09
2018-01-30T18:55:11.881Z,57.16
2018-01-30T18:57:39.469Z,56.36
2018-01-30T19:00:07.116Z,56.43
2018-01-30T19:02:34.935Z,56.62
2018-01-30T19:05:02.507Z,56.78
2018-01-30T19:07:30.239Z,56.77
2018-01-30T19:09:57.778Z,57.12
2018-01-30T19:12:25.298Z,56.96
2018-01-30T19:14:53.116Z,57.36
2018-01-30T19:17:20.690Z,56.94
2018-01-30T19:19:48.225Z,57.31
2018-01-30T19:22:15.878Z,57.56
2018-01-30T19:24:43.405Z,56.93
2018-01-30T19:27:11.214Z,57.42
2018-01-30T19:29:38.777Z,57.36
2018-01-30T19:32:06.378Z,57.65
2018-01-30T19:34:34.146Z,58.11
2018-01-30T19:37:01.665Z,58.45
2018-01-30T19:39:29.245Z,58.84
2018-01-30T19:41:56.815Z,59.23
2018-01-30T19:44:24.537Z,59.27
2018-01-30T19:46:52.406Z,60.40
2018-01-30T19:49:20.066Z,60.39
2018-01-30T19:51:47.683Z,61.07
2018-01-30T19:54:15.217Z,60.88
2018-01-30T19:56:42.828Z,61.54
2018-01-30T19:59:10.413Z,61.38
2018-01-30T20:01:37.978Z,61.19
2018-01-30T20:04:05.674Z,61.35
2018-01-30T20:06:33.377Z,60.95
2018-01-30T20:09:00.903Z,61.58
2018-01-30T20:11:28.545Z,62.79
2018-01-30T20:13:56.251Z,63.14
2018-01-30T20:16:24.064Z,63.18
2018-01-30T20:18:51.597Z,63.41
2018-01-30T20:21:19.178Z,63.88
2018-01-30T20:23:46.705Z,64.01
2018-01-30T20:26:14.446Z,63.94
2018-01-30T20:28:42.181Z,64.28
2018-01-30T20:31:09.947Z,64.09
2018-01-30T20:33:37.483Z,64.30
2018-01-30T20:36:05.216Z,64.48
2018-01-30T20:38:33.035Z,64.52
2018-01-30T20:41:00.844Z,63.60
2018-01-30T20:43:28.373Z,62.61
2018-01-30T20:45:55.989Z,62.70
2018-01-30T20:48:23.520Z,63.29
2018-01-30T20:50:51.270Z,62.17
2018-01-30T20:53:18.995Z,62.25
2018-01-30T20:55:46.690Z,62.05
2018-01-30T20:58:14.378Z,62.58
2018-01-30T21:00:41.981Z,62.33
2018-01-30T21:03:09.605Z,61.43
2018-01-30T21:05:37.329Z,61.14
2018-01-30T21:08:04.849Z,61.26
2018-01-30T21:10:32.381Z,61.29
2018-01-30T21:12:59.921Z,60.97
2018-01-30T21:15:27.441Z,61.42
2018-01-30T21:17:55.145Z,61.31
2018-01-30T21:20:22.845Z,61.59
2018-01-30T21:22:50.369Z,60.97
2018-01-30T21:25:18.065Z,60.91
2018-01-30T21:27:45.629Z,60.91
2018-01-30T21:30:13.338Z,61.31
2018-01-30T21:32:40.905Z,61.47
2018-01-30T21:35:08.430Z,61.03
2018-01-30T21:37:36.066Z,61.20
2018-01-30T21:40:03.645Z,60.94
2018-01-30T21:42:31.593Z,61.15
2018-01-30T21:44:59.135Z,61.00
2018-01-30T21:47:26.731Z,61.32
2018-01-30T21:49:54.555Z,62.02
2018-01-30T21:52:22.088Z,62.42
2018-01-30T21:54:49.763Z,61.99
2018-01-30T21:57:17.350Z,61.88
2018-01-30T21:59:45.126Z,61.85
2018-01-30T22:02:12.675Z,61.36
2018-01-30T22:04:40.463Z,61.40
2018-01-30T22:07:08.101Z,61.24
2018-01-30T22:09:35.899Z,61.42
2018-01-30T22:12:03.434Z,62.08
2018-01-30T22:14:30.972Z,61.37
2018-01-30T22:16:58.654Z,61.61
2018-01-30T22:19:26.370Z,62.26
2018-01-30T22:21:53.895Z,62.46
2018-01-30T22:24:21.426Z,62.29
2018-01-30T22:26:49.224Z,62.99
2018-01-30T22:29:16.851Z,63.43
2018-01-30T22:31:44.489Z,63.86
2018-01-30T22:34:12.019Z,64.17
2018-01-30T22:36:39.796Z,64.95
2018-01-30T22:39:07.614Z,64.69
2018-01-30T22:41:35.156Z,64.83
2018-01-30T22:44:02.950Z,64.93
2018-01-30T22:46:30.562Z,65.14
